sensor_id;sensor_type;location;lat;lon;timestamp;pressure;altitude;pressure_sealevel;temperature;humidity
51617;BME280;37697;52.588;13.394;2023-04-28T00:01:50;101486.97;;;2.52;64.12
51617;BME280;37697;52.588;13.394;2023-04-28T00:07:16;101487.20;;;2.44;64.31
51617;BME280;37697;52.588;13.394;2023-04-28T00:12:42;101481.21;;;2.36;64.57
51617;BME280;37697;52.588;13.394;2023-04-28T00:18:00;101479.71;;;2.29;64.71
51617;BME280;37697;52.588;13.394;2023-04-28T00:23:26;101477.41;;;2.22;64.77
51617;BME280;37697;52.588;13.394;2023-04-28T00:28:52;101473.83;;;2.18;64.89
51617;BME280;37697;52.588;13.394;2023-04-28T00:34:17;101476.44;;;2.14;64.97
51617;BME280;37697;52.588;13.394;2023-04-28T00:39:43;101476.07;;;2.06;65.03
51617;BME280;37697;52.588;13.394;2023-04-28T00:45:10;101470.25;;;1.93;65.24
51617;BME280;37697;52.588;13.394;2023-04-28T00:50:36;101464.98;;;1.84;65.48
51617;BME280;37697;52.588;13.394;2023-04-28T00:56:03;101455.79;;;1.80;65.59
51617;BME280;37697;52.588;13.394;2023-04-28T01:01:29;101457.18;;;1.76;65.81
51617;BME280;37697;52.588;13.394;2023-04-28T01:06:55;101454.69;;;1.74;65.97
51617;BME280;37697;52.588;13.394;2023-04-28T01:12:22;101454.27;;;1.73;66.07
51617;BME280;37697;52.588;13.394;2023-04-28T01:17:48;101448.39;;;1.70;66.29
51617;BME280;37697;52.588;13.394;2023-04-28T01:23:15;101449.89;;;1.66;66.39
51617;BME280;37697;52.588;13.394;2023-04-28T01:28:41;101440.80;;;1.63;66.53
51617;BME280;37697;52.588;13.394;2023-04-28T01:34:06;101438.23;;;1.60;66.77
51617;BME280;37697;52.588;13.394;2023-04-28T01:39:32;101435.59;;;1.56;66.86
51617;BME280;37697;52.588;13.394;2023-04-28T01:44:58;101430.64;;;1.54;67.09
51617;BME280;37697;52.588;13.394;2023-04-28T01:50:23;101425.84;;;1.51;67.31
51617;BME280;37697;52.588;13.394;2023-04-28T01:55:48;101424.76;;;1.49;67.30
51617;BME280;37697;52.588;13.394;2023-04-28T02:01:14;101420.77;;;1.48;67.39
51617;BME280;37697;52.588;13.394;2023-04-28T02:06:40;101416.58;;;1.46;67.64
51617;BME280;37697;52.588;13.394;2023-04-28T02:12:06;101416.64;;;1.43;67.82
51617;BME280;37697;52.588;13.394;2023-04-28T02:17:32;101416.23;;;1.44;67.92
51617;BME280;37697;52.588;13.394;2023-04-28T02:22:57;101418.55;;;1.45;68.08
51617;BME280;37697;52.588;13.394;2023-04-28T02:28:22;101415.89;;;1.47;68.24
51617;BME280;37697;52.588;13.394;2023-04-28T02:33:48;101411.22;;;1.47;68.24
51617;BME280;37697;52.588;13.394;2023-04-28T02:39:14;101408.38;;;1.46;68.51
51617;BME280;37697;52.588;13.394;2023-04-28T02:44:40;101409.23;;;1.46;68.53
51617;BME280;37697;52.588;13.394;2023-04-28T02:50:08;101400.39;;;1.44;68.54
51617;BME280;37697;52.588;13.394;2023-04-28T02:55:34;101404.52;;;1.43;68.70
51617;BME280;37697;52.588;13.394;2023-04-28T03:01:00;101400.02;;;1.44;68.76
51617;BME280;37697;52.588;13.394;2023-04-28T03:06:26;101394.48;;;1.46;68.77
51617;BME280;37697;52.588;13.394;2023-04-28T03:11:45;101392.73;;;1.50;68.85
51617;BME280;37697;52.588;13.394;2023-04-28T03:17:11;101390.70;;;1.53;68.84
51617;BME280;37697;52.588;13.394;2023-04-28T03:22:37;101390.40;;;1.56;68.89
51617;BME280;37697;52.588;13.394;2023-04-28T03:28:03;101386.79;;;1.58;68.97
51617;BME280;37697;52.588;13.394;2023-04-28T03:33:29;101384.20;;;1.61;69.16
51617;BME280;37697;52.588;13.394;2023-04-28T03:38:53;101379.39;;;1.64;69.17
51617;BME280;37697;52.588;13.394;2023-04-28T03:44:19;101379.45;;;1.69;69.25
51617;BME280;37697;52.588;13.394;2023-04-28T03:49:45;101377.52;;;1.74;69.27
51617;BME280;37697;52.588;13.394;2023-04-28T03:55:11;101372.55;;;1.80;69.04
51617;BME280;37697;52.588;13.394;2023-04-28T04:00:37;101367.70;;;1.86;69.25
51617;BME280;37697;52.588;13.394;2023-04-28T04:06:03;101363.27;;;1.96;69.16
51617;BME280;37697;52.588;13.394;2023-04-28T04:11:29;101357.23;;;2.06;69.23
51617;BME280;37697;52.588;13.394;2023-04-28T04:16:55;101355.39;;;2.17;69.25
51617;BME280;37697;52.588;13.394;2023-04-28T04:22:21;101355.66;;;2.29;69.03
51617;BME280;37697;52.588;13.394;2023-04-28T04:27:46;101355.89;;;2.45;68.75
51617;BME280;37697;52.588;13.394;2023-04-28T04:33:12;101351.65;;;2.60;68.75
51617;BME280;37697;52.588;13.394;2023-04-28T04:38:38;101344.20;;;2.73;68.45
51617;BME280;37697;52.588;13.394;2023-04-28T04:44:03;101341.41;;;2.88;68.37
51617;BME280;37697;52.588;13.394;2023-04-28T04:49:29;101335.23;;;3.06;68.27
51617;BME280;37697;52.588;13.394;2023-04-28T04:54:55;101332.68;;;3.62;67.45
51617;BME280;37697;52.588;13.394;2023-04-28T05:00:12;101331.08;;;4.20;66.70
51617;BME280;37697;52.588;13.394;2023-04-28T05:05:38;101326.79;;;4.86;65.83
51617;BME280;37697;52.588;13.394;2023-04-28T05:11:04;101320.08;;;5.58;64.86
51617;BME280;37697;52.588;13.394;2023-04-28T05:16:30;101319.41;;;6.32;63.79
51617;BME280;37697;52.588;13.394;2023-04-28T05:21:50;101315.20;;;6.91;62.58
51617;BME280;37697;52.588;13.394;2023-04-28T05:27:07;101312.77;;;7.30;61.76
51617;BME280;37697;52.588;13.394;2023-04-28T05:32:34;101309.63;;;7.55;61.08
51617;BME280;37697;52.588;13.394;2023-04-28T05:38:01;101312.54;;;7.78;60.56
51617;BME280;37697;52.588;13.394;2023-04-28T05:43:27;101300.59;;;8.05;59.92
51617;BME280;37697;52.588;13.394;2023-04-28T05:48:53;101293.27;;;8.58;59.47
51617;BME280;37697;52.588;13.394;2023-04-28T05:54:19;101284.15;;;9.06;58.63
51617;BME280;37697;52.588;13.394;2023-04-28T05:59:45;101282.46;;;9.42;57.57
51617;BME280;37697;52.588;13.394;2023-04-28T06:05:11;101276.69;;;9.65;56.72
51617;BME280;37697;52.588;13.394;2023-04-28T06:10:37;101273.70;;;9.86;55.97
51617;BME280;37697;52.588;13.394;2023-04-28T06:16:04;101273.80;;;10.11;55.05
51617;BME280;37697;52.588;13.394;2023-04-28T06:21:30;101274.25;;;10.32;54.84
51617;BME280;37697;52.588;13.394;2023-04-28T06:26:56;101269.91;;;10.55;53.47
51617;BME280;37697;52.588;13.394;2023-04-28T06:32:22;101258.46;;;10.73;53.24
51617;BME280;37697;52.588;13.394;2023-04-28T06:37:48;101243.56;;;11.07;53.37
51617;BME280;37697;52.588;13.394;2023-04-28T06:43:14;101239.63;;;11.27;52.04
51617;BME280;37697;52.588;13.394;2023-04-28T06:48:40;101238.60;;;11.46;52.05
51617;BME280;37697;52.588;13.394;2023-04-28T06:54:05;101238.05;;;11.74;51.12
51617;BME280;37697;52.588;13.394;2023-04-28T06:59:31;101231.94;;;11.96;49.56
51617;BME280;37697;52.588;13.394;2023-04-28T07:04:57;101227.13;;;11.98;48.65
51617;BME280;37697;52.588;13.394;2023-04-28T07:10:23;101222.67;;;11.71;46.51
51617;BME280;37697;52.588;13.394;2023-04-28T07:15:48;101222.48;;;11.84;46.31
51617;BME280;37697;52.588;13.394;2023-04-28T07:21:14;101213.28;;;11.91;44.73
51617;BME280;37697;52.588;13.394;2023-04-28T07:26:40;101210.64;;;11.94;43.69
51617;BME280;37697;52.588;13.394;2023-04-28T07:32:06;101204.51;;;12.05;42.83
51617;BME280;37697;52.588;13.394;2023-04-28T07:37:35;101194.50;;;12.25;42.44
51617;BME280;37697;52.588;13.394;2023-04-28T07:43:01;101190.75;;;12.54;42.35
51617;BME280;37697;52.588;13.394;2023-04-28T07:48:27;101181.21;;;12.84;42.62
51617;BME280;37697;52.588;13.394;2023-04-28T07:53:53;101177.76;;;13.02;42.60
51617;BME280;37697;52.588;13.394;2023-04-28T07:59:19;101172.88;;;13.05;41.63
51617;BME280;37697;52.588;13.394;2023-04-28T08:04:45;101165.55;;;13.30;42.22
51617;BME280;37697;52.588;13.394;2023-04-28T08:10:12;101163.71;;;13.52;41.65
51617;BME280;37697;52.588;13.394;2023-04-28T08:15:38;101161.28;;;13.84;41.85
51617;BME280;37697;52.588;13.394;2023-04-28T08:21:04;101155.73;;;14.18;41.97
51617;BME280;37697;52.588;13.394;2023-04-28T08:26:23;101152.52;;;14.30;41.65
51617;BME280;37697;52.588;13.394;2023-04-28T08:31:49;101147.75;;;14.34;41.15
51617;BME280;37697;52.588;13.394;2023-04-28T08:37:15;101143.48;;;14.50;41.22
51617;BME280;37697;52.588;13.394;2023-04-28T08:42:42;101138.52;;;14.58;40.95
51617;BME280;37697;52.588;13.394;2023-04-28T08:48:16;101139.23;;;14.68;41.08
51617;BME280;37697;52.588;13.394;2023-04-28T08:53:47;101131.80;;;14.74;40.72
51617;BME280;37697;52.588;13.394;2023-04-28T08:59:18;101122.16;;;14.72;41.14
51617;BME280;37697;52.588;13.394;2023-04-28T09:04:44;101120.52;;;14.80;40.45
51617;BME280;37697;52.588;13.394;2023-04-28T09:10:23;101107.67;;;15.02;40.37
51617;BME280;37697;52.588;13.394;2023-04-28T09:15:49;101096.85;;;15.11;40.12
51617;BME280;37697;52.588;13.394;2023-04-28T09:21:15;101095.80;;;15.13;40.11
51617;BME280;37697;52.588;13.394;2023-04-28T09:26:49;101088.63;;;15.20;39.19
51617;BME280;37697;52.588;13.394;2023-04-28T09:32:17;101082.72;;;15.20;39.19
51617;BME280;37697;52.588;13.394;2023-04-28T09:37:43;101076.38;;;15.32;39.30
51617;BME280;37697;52.588;13.394;2023-04-28T09:43:24;101066.79;;;15.55;39.54
51617;BME280;37697;52.588;13.394;2023-04-28T09:49:00;101060.55;;;15.78;39.71
51617;BME280;37697;52.588;13.394;2023-04-28T09:54:28;101052.31;;;15.85;38.05
51617;BME280;37697;52.588;13.394;2023-04-28T09:59:55;101045.90;;;15.81;38.54
51617;BME280;37697;52.588;13.394;2023-04-28T10:05:23;101049.17;;;15.97;38.52
51617;BME280;37697;52.588;13.394;2023-04-28T10:10:43;101044.59;;;16.05;38.40
51617;BME280;37697;52.588;13.394;2023-04-28T10:16:10;101048.48;;;16.19;37.72
51617;BME280;37697;52.588;13.394;2023-04-28T10:21:42;101033.16;;;16.32;38.36
51617;BME280;37697;52.588;13.394;2023-04-28T10:27:12;101026.56;;;16.38;37.12
51617;BME280;37697;52.588;13.394;2023-04-28T10:32:39;101016.65;;;16.25;37.45
51617;BME280;37697;52.588;13.394;2023-04-28T10:38:05;101007.28;;;16.30;37.59
51617;BME280;37697;52.588;13.394;2023-04-28T10:43:36;100999.89;;;16.69;38.49
51617;BME280;37697;52.588;13.394;2023-04-28T10:49:02;100995.91;;;16.87;37.82
51617;BME280;37697;52.588;13.394;2023-04-28T10:54:28;100991.89;;;17.03;38.07
51617;BME280;37697;52.588;13.394;2023-04-28T11:00:27;100987.41;;;16.98;36.96
51617;BME280;37697;52.588;13.394;2023-04-28T11:06:19;100983.35;;;16.91;36.44
51617;BME280;37697;52.588;13.394;2023-04-28T11:12:04;100977.65;;;16.92;36.99
51617;BME280;37697;52.588;13.394;2023-04-28T11:17:40;100971.40;;;17.06;37.13
51617;BME280;37697;52.588;13.394;2023-04-28T11:23:07;100962.84;;;17.04;36.57
51617;BME280;37697;52.588;13.394;2023-04-28T11:28:33;100964.68;;;16.91;37.25
51617;BME280;37697;52.588;13.394;2023-04-28T11:34:02;100960.04;;;17.04;37.39
51617;BME280;37697;52.588;13.394;2023-04-28T11:39:30;100961.70;;;17.17;37.80
51617;BME280;37697;52.588;13.394;2023-04-28T11:44:56;100953.27;;;17.37;37.61
51617;BME280;37697;52.588;13.394;2023-04-28T11:56:09;100946.36;;;17.26;37.78
51617;BME280;37697;52.588;13.394;2023-04-28T12:01:44;100941.13;;;17.13;37.64
51617;BME280;37697;52.588;13.394;2023-04-28T12:07:11;100934.21;;;17.11;37.89
51617;BME280;37697;52.588;13.394;2023-04-28T12:12:38;100931.02;;;17.03;37.46
51617;BME280;37697;52.588;13.394;2023-04-28T12:18:11;100928.27;;;16.96;37.96
51617;BME280;37697;52.588;13.394;2023-04-28T12:23:36;100922.45;;;16.99;38.04
51617;BME280;37697;52.588;13.394;2023-04-28T12:29:02;100911.85;;;16.94;37.92
51617;BME280;37697;52.588;13.394;2023-04-28T12:34:28;100912.61;;;16.91;38.12
51617;BME280;37697;52.588;13.394;2023-04-28T12:39:53;100911.42;;;16.85;37.96
51617;BME280;37697;52.588;13.394;2023-04-28T12:45:19;100906.11;;;16.81;38.23
51617;BME280;37697;52.588;13.394;2023-04-28T12:50:45;100898.52;;;16.83;38.02
51617;BME280;37697;52.588;13.394;2023-04-28T12:56:11;100896.51;;;16.82;38.11
51617;BME280;37697;52.588;13.394;2023-04-28T13:01:37;100890.30;;;16.90;37.85
51617;BME280;37697;52.588;13.394;2023-04-28T13:07:03;100884.54;;;16.97;37.75
51617;BME280;37697;52.588;13.394;2023-04-28T13:12:29;100877.98;;;17.10;37.92
51617;BME280;37697;52.588;13.394;2023-04-28T13:17:48;100870.71;;;17.28;38.25
51617;BME280;37697;52.588;13.394;2023-04-28T13:23:13;100866.27;;;17.28;37.58
51617;BME280;37697;52.588;13.394;2023-04-28T13:28:40;100854.83;;;17.23;37.91
51617;BME280;37697;52.588;13.394;2023-04-28T13:34:06;100849.31;;;17.18;37.60
51617;BME280;37697;52.588;13.394;2023-04-28T13:39:31;100843.58;;;17.13;38.08
51617;BME280;37697;52.588;13.394;2023-04-28T13:44:57;100841.89;;;17.15;37.95
51617;BME280;37697;52.588;13.394;2023-04-28T13:50:26;100835.79;;;17.08;38.10
51617;BME280;37697;52.588;13.394;2023-04-28T13:55:52;100834.02;;;16.92;38.40
51617;BME280;37697;52.588;13.394;2023-04-28T14:01:18;100831.82;;;16.75;38.72
51617;BME280;37697;52.588;13.394;2023-04-28T14:06:44;100820.55;;;16.68;38.78
51617;BME280;37697;52.588;13.394;2023-04-28T14:12:10;100825.48;;;16.59;39.12
51617;BME280;37697;52.588;13.394;2023-04-28T14:17:35;100820.86;;;16.48;39.56
51617;BME280;37697;52.588;13.394;2023-04-28T14:23:01;100825.04;;;16.32;40.13
51617;BME280;37697;52.588;13.394;2023-04-28T14:28:28;100822.75;;;16.03;40.82
51617;BME280;37697;52.588;13.394;2023-04-28T14:33:54;100816.26;;;15.83;41.41
51617;BME280;37697;52.588;13.394;2023-04-28T14:39:19;100811.05;;;15.70;42.09
51617;BME280;37697;52.588;13.394;2023-04-28T14:44:45;100805.61;;;15.61;42.21
51617;BME280;37697;52.588;13.394;2023-04-28T14:50:11;100800.77;;;15.52;42.55
51617;BME280;37697;52.588;13.394;2023-04-28T14:55:37;100794.23;;;15.49;42.85
51617;BME280;37697;52.588;13.394;2023-04-28T15:01:23;100789.76;;;15.45;42.89
51617;BME280;37697;52.588;13.394;2023-04-28T15:06:48;100780.11;;;15.40;43.09
51617;BME280;37697;52.588;13.394;2023-04-28T15:12:14;100768.58;;;15.36;43.31
51617;BME280;37697;52.588;13.394;2023-04-28T15:17:40;100763.12;;;15.32;43.52
51617;BME280;37697;52.588;13.394;2023-04-28T15:23:04;100761.89;;;15.34;43.87
51617;BME280;37697;52.588;13.394;2023-04-28T15:28:32;100765.03;;;15.39;44.06
51617;BME280;37697;52.588;13.394;2023-04-28T15:33:58;100757.27;;;15.39;44.01
51617;BME280;37697;52.588;13.394;2023-04-28T15:39:24;100756.34;;;15.35;43.86
51617;BME280;37697;52.588;13.394;2023-04-28T15:44:50;100751.98;;;15.32;43.92
51617;BME280;37697;52.588;13.394;2023-04-28T15:50:16;100749.73;;;15.29;44.30
51617;BME280;37697;52.588;13.394;2023-04-28T15:55:42;100744.82;;;15.31;44.53
51617;BME280;37697;52.588;13.394;2023-04-28T16:01:08;100744.36;;;15.29;44.66
51617;BME280;37697;52.588;13.394;2023-04-28T16:06:34;100743.35;;;15.24;45.05
51617;BME280;37697;52.588;13.394;2023-04-28T16:11:59;100741.58;;;15.17;45.32
51617;BME280;37697;52.588;13.394;2023-04-28T16:17:25;100736.19;;;15.09;45.43
51617;BME280;37697;52.588;13.394;2023-04-28T16:22:51;100733.59;;;15.00;45.42
51617;BME280;37697;52.588;13.394;2023-04-28T16:28:18;100730.23;;;14.93;45.85
51617;BME280;37697;52.588;13.394;2023-04-28T16:33:35;100731.02;;;14.90;46.15
51617;BME280;37697;52.588;13.394;2023-04-28T16:39:01;100735.55;;;14.80;46.92
51617;BME280;37697;52.588;13.394;2023-04-28T16:44:26;100739.38;;;14.68;48.07
51617;BME280;37697;52.588;13.394;2023-04-28T16:49:55;100732.48;;;14.57;48.75
51617;BME280;37697;52.588;13.394;2023-04-28T16:55:21;100728.64;;;14.51;49.35
51617;BME280;37697;52.588;13.394;2023-04-28T17:00:47;100721.52;;;14.41;49.63
51617;BME280;37697;52.588;13.394;2023-04-28T17:05:56;100719.36;;;14.35;50.17
51617;BME280;37697;52.588;13.394;2023-04-28T17:11:03;100720.52;;;14.27;50.33
51617;BME280;37697;52.588;13.394;2023-04-28T17:16:09;100718.15;;;14.16;50.66
51617;BME280;37697;52.588;13.394;2023-04-28T17:21:15;100710.64;;;14.10;50.95
51617;BME280;37697;52.588;13.394;2023-04-28T17:26:21;100705.30;;;14.01;51.08
51617;BME280;37697;52.588;13.394;2023-04-28T17:31:27;100705.31;;;13.96;51.76
51617;BME280;37697;52.588;13.394;2023-04-28T17:36:33;100704.88;;;13.92;51.82
51617;BME280;37697;52.588;13.394;2023-04-28T17:41:39;100706.72;;;13.91;52.27
51617;BME280;37697;52.588;13.394;2023-04-28T17:46:45;100706.00;;;13.87;52.70
51617;BME280;37697;52.588;13.394;2023-04-28T17:51:50;100706.33;;;13.77;53.59
51617;BME280;37697;52.588;13.394;2023-04-28T17:56:55;100709.45;;;13.65;54.51
51617;BME280;37697;52.588;13.394;2023-04-28T18:02:01;100714.40;;;13.50;55.22
51617;BME280;37697;52.588;13.394;2023-04-28T18:07:06;100716.48;;;13.34;56.21
51617;BME280;37697;52.588;13.394;2023-04-28T18:12:12;100724.77;;;13.20;57.15
51617;BME280;37697;52.588;13.394;2023-04-28T18:17:17;100718.87;;;13.06;58.14
51617;BME280;37697;52.588;13.394;2023-04-28T18:22:23;100715.32;;;12.93;58.88
51617;BME280;37697;52.588;13.394;2023-04-28T18:27:28;100709.05;;;12.86;59.22
51617;BME280;37697;52.588;13.394;2023-04-28T18:32:33;100707.49;;;12.78;59.81
51617;BME280;37697;52.588;13.394;2023-04-28T18:37:39;100697.74;;;12.71;60.36
51617;BME280;37697;52.588;13.394;2023-04-28T18:42:47;100692.01;;;12.65;60.89
51617;BME280;37697;52.588;13.394;2023-04-28T18:47:53;100690.13;;;12.62;60.92
51617;BME280;37697;52.588;13.394;2023-04-28T18:53:00;100690.56;;;12.62;61.14
51617;BME280;37697;52.588;13.394;2023-04-28T18:58:05;100693.48;;;12.62;61.26
51617;BME280;37697;52.588;13.394;2023-04-28T19:03:11;100691.76;;;12.62;61.75
51617;BME280;37697;52.588;13.394;2023-04-28T19:08:17;100693.09;;;12.63;61.84
51617;BME280;37697;52.588;13.394;2023-04-28T19:13:23;100688.74;;;12.63;62.01
51617;BME280;37697;52.588;13.394;2023-04-28T19:18:29;100689.89;;;12.61;62.26
51617;BME280;37697;52.588;13.394;2023-04-28T19:23:36;100689.41;;;12.56;62.32
51617;BME280;37697;52.588;13.394;2023-04-28T19:28:43;100683.42;;;12.51;62.72
51617;BME280;37697;52.588;13.394;2023-04-28T19:33:49;100678.77;;;12.50;62.99
51617;BME280;37697;52.588;13.394;2023-04-28T19:38:54;100676.48;;;12.47;63.13
51617;BME280;37697;52.588;13.394;2023-04-28T19:44:00;100676.85;;;12.41;63.50
51617;BME280;37697;52.588;13.394;2023-04-28T19:49:06;100672.58;;;12.35;63.71
51617;BME280;37697;52.588;13.394;2023-04-28T19:54:11;100675.73;;;12.33;63.96
51617;BME280;37697;52.588;13.394;2023-04-28T19:59:18;100673.73;;;12.29;63.85
51617;BME280;37697;52.588;13.394;2023-04-28T20:04:24;100670.76;;;12.27;64.20
51617;BME280;37697;52.588;13.394;2023-04-28T20:09:31;100670.70;;;12.23;64.58
51617;BME280;37697;52.588;13.394;2023-04-28T20:14:36;100670.91;;;12.19;64.55
51617;BME280;37697;52.588;13.394;2023-04-28T20:19:42;100675.92;;;12.15;64.33
51617;BME280;37697;52.588;13.394;2023-04-28T20:24:48;100670.44;;;12.13;64.48
51617;BME280;37697;52.588;13.394;2023-04-28T20:29:53;100659.91;;;12.11;64.56
51617;BME280;37697;52.588;13.394;2023-04-28T20:34:59;100656.42;;;12.10;64.54
51617;BME280;37697;52.588;13.394;2023-04-28T20:40:07;100651.30;;;12.10;64.47
51617;BME280;37697;52.588;13.394;2023-04-28T20:45:16;100647.30;;;12.09;64.48
51617;BME280;37697;52.588;13.394;2023-04-28T20:50:22;100640.20;;;12.09;64.50
51617;BME280;37697;52.588;13.394;2023-04-28T20:55:27;100635.96;;;12.08;64.76
51617;BME280;37697;52.588;13.394;2023-04-28T21:00:33;100633.55;;;12.06;65.03
51617;BME280;37697;52.588;13.394;2023-04-28T21:05:43;100627.91;;;12.03;65.19
51617;BME280;37697;52.588;13.394;2023-04-28T21:10:50;100625.23;;;12.00;65.20
51617;BME280;37697;52.588;13.394;2023-04-28T21:15:56;100614.89;;;11.97;65.51
51617;BME280;37697;52.588;13.394;2023-04-28T21:21:03;100603.25;;;11.93;65.49
51617;BME280;37697;52.588;13.394;2023-04-28T21:26:08;100604.38;;;11.88;65.61
51617;BME280;37697;52.588;13.394;2023-04-28T21:31:14;100603.15;;;11.84;65.74
51617;BME280;37697;52.588;13.394;2023-04-28T21:36:19;100601.88;;;11.81;65.73
51617;BME280;37697;52.588;13.394;2023-04-28T21:41:25;100597.39;;;11.79;66.04
51617;BME280;37697;52.588;13.394;2023-04-28T21:46:30;100602.88;;;11.77;66.22
51617;BME280;37697;52.588;13.394;2023-04-28T21:51:36;100604.95;;;11.76;66.11
51617;BME280;37697;52.588;13.394;2023-04-28T21:56:42;100591.98;;;11.75;66.29
51617;BME280;37697;52.588;13.394;2023-04-28T22:01:48;100592.14;;;11.74;66.46
51617;BME280;37697;52.588;13.394;2023-04-28T22:06:56;100589.71;;;11.72;66.46
51617;BME280;37697;52.588;13.394;2023-04-28T22:12:02;100586.27;;;11.71;66.83
51617;BME280;37697;52.588;13.394;2023-04-28T22:17:07;100585.79;;;11.68;66.90
51617;BME280;37697;52.588;13.394;2023-04-28T22:22:13;100584.39;;;11.67;66.92
51617;BME280;37697;52.588;13.394;2023-04-28T22:27:18;100576.80;;;11.65;67.19
51617;BME280;37697;52.588;13.394;2023-04-28T22:32:23;100566.00;;;11.64;67.18
51617;BME280;37697;52.588;13.394;2023-04-28T22:37:29;100561.67;;;11.62;67.36
51617;BME280;37697;52.588;13.394;2023-04-28T22:42:36;100554.48;;;11.59;67.43
51617;BME280;37697;52.588;13.394;2023-04-28T22:47:42;100551.61;;;11.56;67.61
51617;BME280;37697;52.588;13.394;2023-04-28T22:52:48;100550.29;;;11.54;67.66
51617;BME280;37697;52.588;13.394;2023-04-28T22:57:54;100545.38;;;11.52;67.84
51617;BME280;37697;52.588;13.394;2023-04-28T23:02:59;100542.91;;;11.51;68.17
51617;BME280;37697;52.588;13.394;2023-04-28T23:08:05;100542.60;;;11.50;68.13
51617;BME280;37697;52.588;13.394;2023-04-28T23:13:11;100539.81;;;11.49;68.13
51617;BME280;37697;52.588;13.394;2023-04-28T23:18:17;100534.39;;;11.48;68.22
51617;BME280;37697;52.588;13.394;2023-04-28T23:23:22;100535.14;;;11.47;68.18
51617;BME280;37697;52.588;13.394;2023-04-28T23:28:27;100528.36;;;11.46;68.39
51617;BME280;37697;52.588;13.394;2023-04-28T23:33:33;100526.23;;;11.46;68.32
51617;BME280;37697;52.588;13.394;2023-04-28T23:38:38;100516.29;;;11.44;68.47
51617;BME280;37697;52.588;13.394;2023-04-28T23:43:43;100506.27;;;11.41;68.71
51617;BME280;37697;52.588;13.394;2023-04-28T23:48:49;100493.36;;;11.39;68.59
51617;BME280;37697;52.588;13.394;2023-04-28T23:53:54;100489.36;;;11.38;68.70
51617;BME280;37697;52.588;13.394;2023-04-28T23:59:00;100490.19;;;11.38;68.65
